sensor_id;sensor_type;location;lat;lon;timestamp;pressure;altitude;pressure_sealevel;temperature
32039;BMP280;18549;42.286;22.688;2024-03-08T00:01:00;95653.44;;;9.04
32039;BMP280;18549;42.286;22.688;2024-03-08T00:03:27;95653.34;;;9.06
32039;BMP280;18549;42.286;22.688;2024-03-08T00:05:54;95649.28;;;9.05
32039;BMP280;18549;42.286;22.688;2024-03-08T00:08:21;95655.81;;;9.06
32039;BMP280;18549;42.286;22.688;2024-03-08T00:10:48;95646.75;;;9.06
32039;BMP280;18549;42.286;22.688;2024-03-08T00:13:16;95650.09;;;9.05
32039;BMP280;18549;42.286;22.688;2024-03-08T00:15:43;95650.19;;;9.04
32039;BMP280;18549;42.286;22.688;2024-03-08T00:18:10;95650.19;;;9.04
32039;BMP280;18549;42.286;22.688;2024-03-08T00:20:37;95646.38;;;8.98
32039;BMP280;18549;42.286;22.688;2024-03-08T00:23:04;95648.13;;;8.96
32039;BMP280;18549;42.286;22.688;2024-03-08T00:25:30;95636.28;;;8.88
32039;BMP280;18549;42.286;22.688;2024-03-08T00:27:57;95642.84;;;8.88
32039;BMP280;18549;42.286;22.688;2024-03-08T00:30:26;95635.16;;;8.93
32039;BMP280;18549;42.286;22.688;2024-03-08T00:32:53;95631.78;;;8.94
32039;BMP280;18549;42.286;22.688;2024-03-08T00:35:20;95636.75;;;8.94
32039;BMP280;18549;42.286;22.688;2024-03-08T00:37:48;95637.44;;;8.96
32039;BMP280;18549;42.286;22.688;2024-03-08T00:40:15;95636.41;;;9.00
32039;BMP280;18549;42.286;22.688;2024-03-08T00:42:41;95629.69;;;9.02
32039;BMP280;18549;42.286;22.688;2024-03-08T00:45:09;95628.81;;;9.03
32039;BMP280;18549;42.286;22.688;2024-03-08T00:47:38;95632.88;;;9.04
32039;BMP280;18549;42.286;22.688;2024-03-08T00:50:05;95628.63;;;9.06
32039;BMP280;18549;42.286;22.688;2024-03-08T00:52:33;95620.34;;;9.07
32039;BMP280;18549;42.286;22.688;2024-03-08T00:55:00;95622.62;;;9.10
32039;BMP280;18549;42.286;22.688;2024-03-08T00:57:27;95624.22;;;9.11
32039;BMP280;18549;42.286;22.688;2024-03-08T00:59:54;95619.28;;;9.11
32039;BMP280;18549;42.286;22.688;2024-03-08T01:02:21;95619.28;;;9.11
32039;BMP280;18549;42.286;22.688;2024-03-08T01:04:49;95617.50;;;9.13
32039;BMP280;18549;42.286;22.688;2024-03-08T01:07:16;95625.72;;;9.13
32039;BMP280;18549;42.286;22.688;2024-03-08T01:09:43;95620.69;;;9.15
32039;BMP280;18549;42.286;22.688;2024-03-08T01:12:10;95613.19;;;9.16
32039;BMP280;18549;42.286;22.688;2024-03-08T01:14:36;95618.72;;;9.20
32039;BMP280;18549;42.286;22.688;2024-03-08T01:17:03;95606.38;;;9.20
32039;BMP280;18549;42.286;22.688;2024-03-08T01:19:30;95606.38;;;9.20
32039;BMP280;18549;42.286;22.688;2024-03-08T01:21:59;95602.31;;;9.19
32039;BMP280;18549;42.286;22.688;2024-03-08T01:24:26;95598.09;;;9.21
32039;BMP280;18549;42.286;22.688;2024-03-08T01:26:56;95597.28;;;9.20
32039;BMP280;18549;42.286;22.688;2024-03-08T01:29:22;95589.06;;;9.20
32039;BMP280;18549;42.286;22.688;2024-03-08T01:31:49;95593.13;;;9.21
32039;BMP280;18549;42.286;22.688;2024-03-08T01:34:17;95593.13;;;9.21
32039;BMP280;18549;42.286;22.688;2024-03-08T01:36:44;95601.34;;;9.21
32039;BMP280;18549;42.286;22.688;2024-03-08T01:39:12;95593.84;;;9.22
32039;BMP280;18549;42.286;22.688;2024-03-08T01:41:39;95588.47;;;9.16
32039;BMP280;18549;42.286;22.688;2024-03-08T01:44:06;95593.22;;;9.19
32039;BMP280;18549;42.286;22.688;2024-03-08T01:46:33;95582.53;;;9.19
32039;BMP280;18549;42.286;22.688;2024-03-08T01:49:01;95591.28;;;9.10
32039;BMP280;18549;42.286;22.688;2024-03-08T01:51:29;95592.25;;;9.08
32039;BMP280;18549;42.286;22.688;2024-03-08T01:53:56;95585.47;;;9.11
32039;BMP280;18549;42.286;22.688;2024-03-08T01:56:28;95591.72;;;9.17
32039;BMP280;18549;42.286;22.688;2024-03-08T01:58:57;95584.50;;;9.14
32039;BMP280;18549;42.286;22.688;2024-03-08T02:01:24;95586.97;;;9.14
32039;BMP280;18549;42.286;22.688;2024-03-08T02:03:52;95580.41;;;9.13
32039;BMP280;18549;42.286;22.688;2024-03-08T02:06:18;95577.34;;;9.09
32039;BMP280;18549;42.286;22.688;2024-03-08T02:08:45;95572.31;;;9.11
32039;BMP280;18549;42.286;22.688;2024-03-08T02:11:12;95573.09;;;9.11
32039;BMP280;18549;42.286;22.688;2024-03-08T02:13:40;95577.25;;;9.11
32039;BMP280;18549;42.286;22.688;2024-03-08T02:16:07;95575.66;;;9.10
32039;BMP280;18549;42.286;22.688;2024-03-08T02:18:34;95573.97;;;9.10
32039;BMP280;18549;42.286;22.688;2024-03-08T02:21:04;95572.31;;;9.11
32039;BMP280;18549;42.286;22.688;2024-03-08T02:23:31;95576.69;;;9.06
32039;BMP280;18549;42.286;22.688;2024-03-08T02:25:59;95575.19;;;9.03
32039;BMP280;18549;42.286;22.688;2024-03-08T02:28:26;95570.88;;;9.07
32039;BMP280;18549;42.286;22.688;2024-03-08T02:30:53;95572.37;;;9.09
32039;BMP280;18549;42.286;22.688;2024-03-08T02:33:22;95579.72;;;9.11
32039;BMP280;18549;42.286;22.688;2024-03-08T02:35:49;95573.88;;;9.12
32039;BMP280;18549;42.286;22.688;2024-03-08T02:38:18;95576.62;;;9.07
32039;BMP280;18549;42.286;22.688;2024-03-08T02:40:46;95583.25;;;9.07
32039;BMP280;18549;42.286;22.688;2024-03-08T02:43:14;95583.25;;;9.07
32039;BMP280;18549;42.286;22.688;2024-03-08T02:45:41;95580.66;;;9.08
32039;BMP280;18549;42.286;22.688;2024-03-08T02:48:09;95591.38;;;9.09
32039;BMP280;18549;42.286;22.688;2024-03-08T02:50:36;95592.78;;;9.13
32039;BMP280;18549;42.286;22.688;2024-03-08T02:53:05;95595.94;;;9.15
32039;BMP280;18549;42.286;22.688;2024-03-08T02:55:33;95589.44;;;9.14
32039;BMP280;18549;42.286;22.688;2024-03-08T02:58:01;95594.38;;;9.14
32039;BMP280;18549;42.286;22.688;2024-03-08T03:00:28;95595.94;;;9.15
32039;BMP280;18549;42.286;22.688;2024-03-08T03:02:58;95589.44;;;9.14
32039;BMP280;18549;42.286;22.688;2024-03-08T03:05:25;95591.72;;;9.17
32039;BMP280;18549;42.286;22.688;2024-03-08T03:07:51;95595.78;;;9.18
32039;BMP280;18549;42.286;22.688;2024-03-08T03:10:21;95594.19;;;9.17
32039;BMP280;18549;42.286;22.688;2024-03-08T03:12:49;95586.78;;;9.17
32039;BMP280;18549;42.286;22.688;2024-03-08T03:15:17;95594.38;;;9.14
32039;BMP280;18549;42.286;22.688;2024-03-08T03:17:46;95595.87;;;9.16
32039;BMP280;18549;42.286;22.688;2024-03-08T03:20:13;95596.66;;;9.17
32039;BMP280;18549;42.286;22.688;2024-03-08T03:22:40;95596.66;;;9.17
32039;BMP280;18549;42.286;22.688;2024-03-08T03:25:07;95595.87;;;9.16
32039;BMP280;18549;42.286;22.688;2024-03-08T03:27:34;95595.94;;;9.15
32039;BMP280;18549;42.286;22.688;2024-03-08T03:30:04;95600.91;;;9.15
32039;BMP280;18549;42.286;22.688;2024-03-08T03:33:01;95596.25;;;9.64
32039;BMP280;18549;42.286;22.688;2024-03-08T03:35:32;95596.25;;;9.64
32039;BMP280;18549;42.286;22.688;2024-03-08T03:37:59;95608.50;;;9.12
32039;BMP280;18549;42.286;22.688;2024-03-08T03:40:32;95612.75;;;9.10
32039;BMP280;18549;42.286;22.688;2024-03-08T03:42:59;95611.75;;;9.12
32039;BMP280;18549;42.286;22.688;2024-03-08T03:45:26;95613.91;;;9.04
32039;BMP280;18549;42.286;22.688;2024-03-08T03:47:53;95622.69;;;8.81
32039;BMP280;18549;42.286;22.688;2024-03-08T03:50:21;95616.47;;;8.60
32039;BMP280;18549;42.286;22.688;2024-03-08T03:52:49;95631.97;;;8.48
32039;BMP280;18549;42.286;22.688;2024-03-08T03:55:16;95632.75;;;8.49
32039;BMP280;18549;42.286;22.688;2024-03-08T03:57:43;95636.50;;;8.26
32039;BMP280;18549;42.286;22.688;2024-03-08T04:00:11;95637.44;;;8.24
32039;BMP280;18549;42.286;22.688;2024-03-08T04:02:39;95636.88;;;8.19
32039;BMP280;18549;42.286;22.688;2024-03-08T04:05:08;95639.44;;;8.02
32039;BMP280;18549;42.286;22.688;2024-03-08T04:07:36;95641.44;;;7.81
32039;BMP280;18549;42.286;22.688;2024-03-08T04:10:04;95645.78;;;7.76
32039;BMP280;18549;42.286;22.688;2024-03-08T04:12:34;95639.13;;;7.62
32039;BMP280;18549;42.286;22.688;2024-03-08T04:15:01;95650.84;;;7.74
32039;BMP280;18549;42.286;22.688;2024-03-08T04:17:28;95654.09;;;7.75
32039;BMP280;18549;42.286;22.688;2024-03-08T04:19:54;95656.41;;;7.93
32039;BMP280;18549;42.286;22.688;2024-03-08T04:22:22;95657.00;;;7.96
32039;BMP280;18549;42.286;22.688;2024-03-08T04:24:50;95660.06;;;8.01
32039;BMP280;18549;42.286;22.688;2024-03-08T04:27:17;95662.19;;;8.07
32039;BMP280;18549;42.286;22.688;2024-03-08T04:29:44;95658.97;;;8.22
32039;BMP280;18549;42.286;22.688;2024-03-08T04:32:11;95668.84;;;8.22
32039;BMP280;18549;42.286;22.688;2024-03-08T04:34:38;95671.91;;;8.25
32039;BMP280;18549;42.286;22.688;2024-03-08T04:37:05;95675.50;;;8.35
32039;BMP280;18549;42.286;22.688;2024-03-08T04:39:32;95675.09;;;8.43
32039;BMP280;18549;42.286;22.688;2024-03-08T04:42:02;95674.75;;;8.49
32039;BMP280;18549;42.286;22.688;2024-03-08T04:44:30;95690.28;;;8.51
32039;BMP280;18549;42.286;22.688;2024-03-08T04:46:57;95688.59;;;8.51
32039;BMP280;18549;42.286;22.688;2024-03-08T04:49:24;95683.59;;;8.53
32039;BMP280;18549;42.286;22.688;2024-03-08T04:51:50;95691.97;;;8.50
32039;BMP280;18549;42.286;22.688;2024-03-08T04:54:17;95694.37;;;8.52
32039;BMP280;18549;42.286;22.688;2024-03-08T04:56:44;95703.53;;;8.50
32039;BMP280;18549;42.286;22.688;2024-03-08T04:59:12;95695.56;;;8.45
32039;BMP280;18549;42.286;22.688;2024-03-08T05:01:39;95689.50;;;8.50
32039;BMP280;18549;42.286;22.688;2024-03-08T05:04:06;95699.06;;;8.56
32039;BMP280;18549;42.286;22.688;2024-03-08T05:06:32;95697.38;;;8.56
32039;BMP280;18549;42.286;22.688;2024-03-08T05:08:59;95694.19;;;8.55
32039;BMP280;18549;42.286;22.688;2024-03-08T05:11:26;95704.69;;;8.58
32039;BMP280;18549;42.286;22.688;2024-03-08T05:13:53;95706.22;;;8.60
32039;BMP280;18549;42.286;22.688;2024-03-08T05:16:21;95710.28;;;8.61
32039;BMP280;18549;42.286;22.688;2024-03-08T05:18:49;95720.88;;;8.63
32039;BMP280;18549;42.286;22.688;2024-03-08T05:21:16;95715.03;;;8.64
32039;BMP280;18549;42.286;22.688;2024-03-08T05:23:45;95724.78;;;8.67
32039;BMP280;18549;42.286;22.688;2024-03-08T05:26:12;95719.72;;;8.69
32039;BMP280;18549;42.286;22.688;2024-03-08T05:28:40;95727.25;;;8.67
32039;BMP280;18549;42.286;22.688;2024-03-08T05:31:07;95732.34;;;8.64
32039;BMP280;18549;42.286;22.688;2024-03-08T05:33:35;95740.72;;;8.62
32039;BMP280;18549;42.286;22.688;2024-03-08T05:36:02;95745.59;;;8.63
32039;BMP280;18549;42.286;22.688;2024-03-08T05:38:29;95752.81;;;8.66
32039;BMP280;18549;42.286;22.688;2024-03-08T05:40:56;95745.22;;;8.69
32039;BMP280;18549;42.286;22.688;2024-03-08T05:43:22;95750.03;;;8.72
32039;BMP280;18549;42.286;22.688;2024-03-08T05:45:50;95755.59;;;8.76
32039;BMP280;18549;42.286;22.688;2024-03-08T05:48:16;95756.47;;;8.75
32039;BMP280;18549;42.286;22.688;2024-03-08T05:50:45;95761.31;;;8.76
32039;BMP280;18549;42.286;22.688;2024-03-08T05:53:12;95766.84;;;8.81
32039;BMP280;18549;42.286;22.688;2024-03-08T05:55:40;95774.06;;;8.84
32039;BMP280;18549;42.286;22.688;2024-03-08T05:58:06;95768.97;;;8.87
32039;BMP280;18549;42.286;22.688;2024-03-08T06:00:34;95766.41;;;8.88
32039;BMP280;18549;42.286;22.688;2024-03-08T06:03:02;95755.75;;;8.88
32039;BMP280;18549;42.286;22.688;2024-03-08T06:05:29;95769.84;;;8.86
32039;BMP280;18549;42.286;22.688;2024-03-08T06:07:57;95767.03;;;8.92
32039;BMP280;18549;42.286;22.688;2024-03-08T06:10:24;95769.25;;;8.96
32039;BMP280;18549;42.286;22.688;2024-03-08T06:12:50;95765.81;;;8.99
32039;BMP280;18549;42.286;22.688;2024-03-08T06:15:17;95762.56;;;8.98
32039;BMP280;18549;42.286;22.688;2024-03-08T06:17:46;95771.47;;;9.01
32039;BMP280;18549;42.286;22.688;2024-03-08T06:20:13;95768.16;;;9.02
32039;BMP280;18549;42.286;22.688;2024-03-08T06:22:40;95763.19;;;9.02
32039;BMP280;18549;42.286;22.688;2024-03-08T06:25:09;95769.72;;;9.03
32039;BMP280;18549;42.286;22.688;2024-03-08T06:27:36;95777.06;;;9.04
32039;BMP280;18549;42.286;22.688;2024-03-08T06:30:04;95771.94;;;9.07
32039;BMP280;18549;42.286;22.688;2024-03-08T06:32:31;95778.31;;;9.11
32039;BMP280;18549;42.286;22.688;2024-03-08T06:35:01;95778.22;;;9.13
32039;BMP280;18549;42.286;22.688;2024-03-08T06:37:28;95781.41;;;9.15
32039;BMP280;18549;42.286;22.688;2024-03-08T06:39:54;95783.72;;;9.18
32039;BMP280;18549;42.286;22.688;2024-03-08T06:42:23;95791.16;;;9.18
32039;BMP280;18549;42.286;22.688;2024-03-08T06:44:49;95781.16;;;9.19
32039;BMP280;18549;42.286;22.688;2024-03-08T06:47:16;95790.19;;;9.20
32039;BMP280;18549;42.286;22.688;2024-03-08T06:49:43;95786.81;;;9.21
32039;BMP280;18549;42.286;22.688;2024-03-08T06:52:10;95789.22;;;9.22
32039;BMP280;18549;42.286;22.688;2024-03-08T06:54:37;95787.72;;;9.20
32039;BMP280;18549;42.286;22.688;2024-03-08T06:57:04;95793.78;;;9.15
32039;BMP280;18549;42.286;22.688;2024-03-08T06:59:32;95795.53;;;9.13
32039;BMP280;18549;42.286;22.688;2024-03-08T07:02:01;95802.41;;;9.08
32039;BMP280;18549;42.286;22.688;2024-03-08T07:04:28;95803.38;;;9.05
32039;BMP280;18549;42.286;22.688;2024-03-08T07:06:55;95806.81;;;9.03
32039;BMP280;18549;42.286;22.688;2024-03-08T07:09:23;95805.25;;;8.87
32039;BMP280;18549;42.286;22.688;2024-03-08T07:11:49;95806.81;;;8.88
32039;BMP280;18549;42.286;22.688;2024-03-08T07:14:21;95804.50;;;9.00
32039;BMP280;18549;42.286;22.688;2024-03-08T07:16:49;95792.50;;;9.08
32039;BMP280;18549;42.286;22.688;2024-03-08T07:19:17;95800.16;;;9.19
32039;BMP280;18549;42.286;22.688;2024-03-08T07:21:44;95806.44;;;9.24
32039;BMP280;18549;42.286;22.688;2024-03-08T07:24:13;95801.22;;;9.28
32039;BMP280;18549;42.286;22.688;2024-03-08T07:26:53;95799.47;;;9.30
32039;BMP280;18549;42.286;22.688;2024-03-08T07:29:22;95803.31;;;9.36
32039;BMP280;18549;42.286;22.688;2024-03-08T07:31:51;95804.88;;;9.37
32039;BMP280;18549;42.286;22.688;2024-03-08T07:34:26;95809.75;;;9.38
32039;BMP280;18549;42.286;22.688;2024-03-08T07:36:53;95807.59;;;9.32
32039;BMP280;18549;42.286;22.688;2024-03-08T07:39:21;95796.63;;;9.22
32039;BMP280;18549;42.286;22.688;2024-03-08T07:41:49;95811.00;;;9.16
32039;BMP280;18549;42.286;22.688;2024-03-08T07:44:17;95806.53;;;9.22
32039;BMP280;18549;42.286;22.688;2024-03-08T07:46:44;95800.38;;;9.29
32039;BMP280;18549;42.286;22.688;2024-03-08T07:49:13;95811.25;;;9.41
32039;BMP280;18549;42.286;22.688;2024-03-08T07:51:40;95801.19;;;9.44
32039;BMP280;18549;42.286;22.688;2024-03-08T07:54:07;95802.31;;;9.24
32039;BMP280;18549;42.286;22.688;2024-03-08T07:56:34;95803.94;;;9.24
32039;BMP280;18549;42.286;22.688;2024-03-08T07:59:01;95806.34;;;9.25
32039;BMP280;18549;42.286;22.688;2024-03-08T08:01:29;95797.00;;;9.30
32039;BMP280;18549;42.286;22.688;2024-03-08T08:03:56;95804.97;;;9.35
32039;BMP280;18549;42.286;22.688;2024-03-08T08:06:24;95799.75;;;9.40
32039;BMP280;18549;42.286;22.688;2024-03-08T08:08:51;95804.25;;;9.33
32039;BMP280;18549;42.286;22.688;2024-03-08T08:11:17;95805.69;;;9.37
32039;BMP280;18549;42.286;22.688;2024-03-08T08:13:45;95807.03;;;9.43
32039;BMP280;18549;42.286;22.688;2024-03-08T08:16:12;95806.50;;;9.52
32039;BMP280;18549;42.286;22.688;2024-03-08T08:18:39;95806.69;;;9.62
32039;BMP280;18549;42.286;22.688;2024-03-08T08:21:06;95812.09;;;9.69
32039;BMP280;18549;42.286;22.688;2024-03-08T08:23:34;95804.50;;;9.72
32039;BMP280;18549;42.286;22.688;2024-03-08T08:26:04;95803.63;;;9.73
32039;BMP280;18549;42.286;22.688;2024-03-08T08:28:33;95806.09;;;9.73
32039;BMP280;18549;42.286;22.688;2024-03-08T08:31:00;95805.00;;;9.77
32039;BMP280;18549;42.286;22.688;2024-03-08T08:33:26;95804.91;;;9.93
32039;BMP280;18549;42.286;22.688;2024-03-08T08:35:54;95805.75;;;10.06
32039;BMP280;18549;42.286;22.688;2024-03-08T08:38:21;95800.03;;;10.06
32039;BMP280;18549;42.286;22.688;2024-03-08T08:40:50;95802.59;;;10.18
32039;BMP280;18549;42.286;22.688;2024-03-08T08:43:18;95797.06;;;10.54
32039;BMP280;18549;42.286;22.688;2024-03-08T08:45:46;95793.37;;;10.86
32039;BMP280;18549;42.286;22.688;2024-03-08T08:48:15;95783.63;;;10.97
32039;BMP280;18549;42.286;22.688;2024-03-08T08:50:42;95775.31;;;10.98
32039;BMP280;18549;42.286;22.688;2024-03-08T08:53:10;95777.03;;;11.22
32039;BMP280;18549;42.286;22.688;2024-03-08T08:55:37;95777.66;;;11.25
32039;BMP280;18549;42.286;22.688;2024-03-08T08:58:07;95777.66;;;11.25
32039;BMP280;18549;42.286;22.688;2024-03-08T09:00:34;95765.53;;;11.21
32039;BMP280;18549;42.286;22.688;2024-03-08T09:03:01;95771.06;;;11.24
32039;BMP280;18549;42.286;22.688;2024-03-08T09:05:28;95772.47;;;11.28
32039;BMP280;18549;42.286;22.688;2024-03-08T09:07:54;95766.81;;;11.26
32039;BMP280;18549;42.286;22.688;2024-03-08T09:10:21;95767.38;;;11.18
32039;BMP280;18549;42.286;22.688;2024-03-08T09:12:48;95767.88;;;11.22
32039;BMP280;18549;42.286;22.688;2024-03-08T09:15:16;95753.53;;;11.27
32039;BMP280;18549;42.286;22.688;2024-03-08T09:17:46;95764.13;;;11.17
32039;BMP280;18549;42.286;22.688;2024-03-08T09:20:14;95765.53;;;11.21
32039;BMP280;18549;42.286;22.688;2024-03-08T09:22:41;95761.34;;;11.21
32039;BMP280;18549;42.286;22.688;2024-03-08T09:25:09;95761.56;;;11.31
32039;BMP280;18549;42.286;22.688;2024-03-08T09:27:37;95746.69;;;11.43
32039;BMP280;18549;42.286;22.688;2024-03-08T09:30:06;95756.44;;;11.46
32039;BMP280;18549;42.286;22.688;2024-03-08T09:32:34;95740.94;;;11.43
32039;BMP280;18549;42.286;22.688;2024-03-08T09:35:02;95752.53;;;11.30
32039;BMP280;18549;42.286;22.688;2024-03-08T09:37:32;95751.28;;;11.49
32039;BMP280;18549;42.286;22.688;2024-03-08T09:39:59;95754.25;;;11.54
32039;BMP280;18549;42.286;22.688;2024-03-08T09:42:30;95756.66;;;11.68
32039;BMP280;18549;42.286;22.688;2024-03-08T09:44:57;95752.06;;;11.86
32039;BMP280;18549;42.286;22.688;2024-03-08T09:47:24;95756.91;;;12.00
32039;BMP280;18549;42.286;22.688;2024-03-08T09:49:56;95758.06;;;12.19
32039;BMP280;18549;42.286;22.688;2024-03-08T09:52:22;95761.13;;;12.23
32039;BMP280;18549;42.286;22.688;2024-03-08T09:54:49;95763.22;;;12.29
32039;BMP280;18549;42.286;22.688;2024-03-08T09:57:16;95763.13;;;12.30
32039;BMP280;18549;42.286;22.688;2024-03-08T09:59:44;95754.22;;;12.39
32039;BMP280;18549;42.286;22.688;2024-03-08T10:02:14;95754.94;;;12.41
32039;BMP280;18549;42.286;22.688;2024-03-08T10:04:44;95755.37;;;12.35
32039;BMP280;18549;42.286;22.688;2024-03-08T10:07:15;95748.31;;;12.29
32039;BMP280;18549;42.286;22.688;2024-03-08T10:09:42;95743.56;;;12.26
32039;BMP280;18549;42.286;22.688;2024-03-08T10:12:15;95748.16;;;12.43
32039;BMP280;18549;42.286;22.688;2024-03-08T10:14:42;95739.47;;;12.60
32039;BMP280;18549;42.286;22.688;2024-03-08T10:17:09;95741.50;;;12.66
32039;BMP280;18549;42.286;22.688;2024-03-08T10:19:37;95741.75;;;12.86
32039;BMP280;18549;42.286;22.688;2024-03-08T10:22:04;95727.28;;;13.25
32039;BMP280;18549;42.286;22.688;2024-03-08T10:24:33;95729.84;;;13.58
32039;BMP280;18549;42.286;22.688;2024-03-08T10:27:01;95729.16;;;13.78
32039;BMP280;18549;42.286;22.688;2024-03-08T10:29:30;95723.16;;;13.91
32039;BMP280;18549;42.286;22.688;2024-03-08T10:31:57;95718.97;;;13.91
32039;BMP280;18549;42.286;22.688;2024-03-08T10:34:25;95724.87;;;14.12
32039;BMP280;18549;42.286;22.688;2024-03-08T10:36:52;95722.47;;;14.32
32039;BMP280;18549;42.286;22.688;2024-03-08T10:39:22;95712.47;;;14.43
32039;BMP280;18549;42.286;22.688;2024-03-08T10:41:53;95713.06;;;14.25
32039;BMP280;18549;42.286;22.688;2024-03-08T10:44:40;95712.97;;;13.94
32039;BMP280;18549;42.286;22.688;2024-03-08T10:47:17;95712.53;;;14.00
32039;BMP280;18549;42.286;22.688;2024-03-08T10:49:51;95703.97;;;14.35
32039;BMP280;18549;42.286;22.688;2024-03-08T10:52:21;95694.44;;;14.40
32039;BMP280;18549;42.286;22.688;2024-03-08T10:54:48;95697.78;;;14.60
32039;BMP280;18549;42.286;22.688;2024-03-08T10:57:18;95688.03;;;14.68
32039;BMP280;18549;42.286;22.688;2024-03-08T10:59:47;95687.03;;;14.60
32039;BMP280;18549;42.286;22.688;2024-03-08T11:02:16;95680.66;;;14.36
32039;BMP280;18549;42.286;22.688;2024-03-08T11:04:47;95689.19;;;14.12
32039;BMP280;18549;42.286;22.688;2024-03-08T11:07:15;95687.69;;;13.87
32039;BMP280;18549;42.286;22.688;2024-03-08T11:09:47;95681.38;;;13.62
32039;BMP280;18549;42.286;22.688;2024-03-08T11:12:24;95684.09;;;13.48
32039;BMP280;18549;42.286;22.688;2024-03-08T11:14:56;95671.81;;;13.23
32039;BMP280;18549;42.286;22.688;2024-03-08T11:17:40;95670.16;;;13.24
32039;BMP280;18549;42.286;22.688;2024-03-08T11:20:11;95669.13;;;13.26
32039;BMP280;18549;42.286;22.688;2024-03-08T11:22:43;95669.56;;;13.20
32039;BMP280;18549;42.286;22.688;2024-03-08T11:25:35;95666.81;;;13.02
32039;BMP280;18549;42.286;22.688;2024-03-08T11:28:13;95664.56;;;13.10
32039;BMP280;18549;42.286;22.688;2024-03-08T11:30:45;95660.47;;;12.98
32039;BMP280;18549;42.286;22.688;2024-03-08T11:33:15;95668.16;;;12.95
32039;BMP280;18549;42.286;22.688;2024-03-08T11:35:43;95660.59;;;12.96
32039;BMP280;18549;42.286;22.688;2024-03-08T11:38:12;95659.09;;;12.94
32039;BMP280;18549;42.286;22.688;2024-03-08T11:40:39;95650.75;;;12.95
32039;BMP280;18549;42.286;22.688;2024-03-08T11:43:07;95649.97;;;13.05
32039;BMP280;18549;42.286;22.688;2024-03-08T11:45:35;95651.00;;;13.14
32039;BMP280;18549;42.286;22.688;2024-03-08T11:48:03;95643.66;;;13.23
32039;BMP280;18549;42.286;22.688;2024-03-08T11:50:30;95646.25;;;13.11
32039;BMP280;18549;42.286;22.688;2024-03-08T11:53:01;95636.06;;;13.14
32039;BMP280;18549;42.286;22.688;2024-03-08T11:55:29;95643.78;;;13.21
32039;BMP280;18549;42.286;22.688;2024-03-08T11:58:01;95638.34;;;13.27
32039;BMP280;18549;42.286;22.688;2024-03-08T12:00:28;95641.44;;;13.31
32039;BMP280;18549;42.286;22.688;2024-03-08T12:03:06;95638.12;;;13.30
32039;BMP280;18549;42.286;22.688;2024-03-08T12:05:35;95641.50;;;13.18
32039;BMP280;18549;42.286;22.688;2024-03-08T12:08:02;95637.31;;;13.19
32039;BMP280;18549;42.286;22.688;2024-03-08T12:10:30;95638.12;;;13.30
32039;BMP280;18549;42.286;22.688;2024-03-08T12:12:58;95640.87;;;13.49
32039;BMP280;18549;42.286;22.688;2024-03-08T12:15:26;95630.56;;;13.43
32039;BMP280;18549;42.286;22.688;2024-03-08T12:17:54;95634.19;;;13.50
32039;BMP280;18549;42.286;22.688;2024-03-08T12:20:24;95634.75;;;13.42
32039;BMP280;18549;42.286;22.688;2024-03-08T12:22:52;95634.06;;;13.40
32039;BMP280;18549;42.286;22.688;2024-03-08T12:25:22;95623.66;;;13.35
32039;BMP280;18549;42.286;22.688;2024-03-08T12:27:49;95624.09;;;13.29
32039;BMP280;18549;42.286;22.688;2024-03-08T12:30:19;95632.47;;;13.18
32039;BMP280;18549;42.286;22.688;2024-03-08T12:32:52;95627.69;;;13.04
32039;BMP280;18549;42.286;22.688;2024-03-08T12:35:20;95614.91;;;12.97
32039;BMP280;18549;42.286;22.688;2024-03-08T12:37:51;95617.75;;;13.04
32039;BMP280;18549;42.286;22.688;2024-03-08T12:40:19;95614.78;;;13.10
32039;BMP280;18549;42.286;22.688;2024-03-08T12:42:46;95613.00;;;13.12
32039;BMP280;18549;42.286;22.688;2024-03-08T12:45:14;95608.13;;;13.21
32039;BMP280;18549;42.286;22.688;2024-03-08T12:47:41;95606.91;;;13.26
32039;BMP280;18549;42.286;22.688;2024-03-08T12:50:09;95600.22;;;13.27
32039;BMP280;18549;42.286;22.688;2024-03-08T12:52:36;95602.63;;;13.28
32039;BMP280;18549;42.286;22.688;2024-03-08T12:55:05;95608.72;;;13.24
32039;BMP280;18549;42.286;22.688;2024-03-08T12:57:34;95606.91;;;13.26
32039;BMP280;18549;42.286;22.688;2024-03-08T13:00:01;95612.09;;;13.34
32039;BMP280;18549;42.286;22.688;2024-03-08T13:02:29;95611.41;;;13.32
32039;BMP280;18549;42.286;22.688;2024-03-08T13:04:56;95609.84;;;13.20
32039;BMP280;18549;42.286;22.688;2024-03-08T13:07:24;95615.94;;;13.06
32039;BMP280;18549;42.286;22.688;2024-03-08T13:09:51;95615.72;;;13.09
32039;BMP280;18549;42.286;22.688;2024-03-08T13:12:20;95612.66;;;13.16
32039;BMP280;18549;42.286;22.688;2024-03-08T13:14:48;95607.00;;;13.25
32039;BMP280;18549;42.286;22.688;2024-03-08T13:17:15;95619.09;;;13.18
32039;BMP280;18549;42.286;22.688;2024-03-08T13:19:43;95614.38;;;13.26
32039;BMP280;18549;42.286;22.688;2024-03-08T13:22:10;95602.72;;;13.27
32039;BMP280;18549;42.286;22.688;2024-03-08T13:24:39;95606.66;;;13.18
32039;BMP280;18549;42.286;22.688;2024-03-08T13:27:07;95606.47;;;13.21
32039;BMP280;18549;42.286;22.688;2024-03-08T13:29:48;95605.09;;;13.28
32039;BMP280;18549;42.286;22.688;2024-03-08T13:32:15;95604.53;;;13.36
32039;BMP280;18549;42.286;22.688;2024-03-08T13:34:46;95600.00;;;13.41
32039;BMP280;18549;42.286;22.688;2024-03-08T13:37:13;95600.56;;;13.44
32039;BMP280;18549;42.286;22.688;2024-03-08T13:39:41;95611.19;;;13.46
32039;BMP280;18549;42.286;22.688;2024-03-08T13:42:10;95598.28;;;13.30
32039;BMP280;18549;42.286;22.688;2024-03-08T13:44:39;95604.84;;;13.20
32039;BMP280;18549;42.286;22.688;2024-03-08T13:47:07;95603.97;;;13.21
32039;BMP280;18549;42.286;22.688;2024-03-08T13:49:34;95598.75;;;13.24
32039;BMP280;18549;42.286;22.688;2024-03-08T13:52:02;95606.34;;;13.34
32039;BMP280;18549;42.286;22.688;2024-03-08T13:54:30;95601.13;;;13.37
32039;BMP280;18549;42.286;22.688;2024-03-08T13:56:57;95595.34;;;13.36
32039;BMP280;18549;42.286;22.688;2024-03-08T13:59:24;95604.31;;;13.39
32039;BMP280;18549;42.286;22.688;2024-03-08T14:01:55;95592.97;;;13.35
32039;BMP280;18549;42.286;22.688;2024-03-08T14:04:23;95599.31;;;13.28
32039;BMP280;18549;42.286;22.688;2024-03-08T14:06:51;95599.53;;;13.14
32039;BMP280;18549;42.286;22.688;2024-03-08T14:09:22;95597.50;;;13.08